Time;durP1;ratioP1;P1;durP2;ratioP2;P2;SDS_P1;SDS_P2;PMS_P1;PMS_P2;Temp;Humidity;BMP_temperature;BMP_pressure;BME280_temperature;BME280_humidity;BME280_pressure;Samples;Min_cycle;Max_cycle;Signal;HPM_P1;HPM_P2
2024/01/06 00:00:05;;;;;;;10.83;3.90;;;;;;;-2.82;98.52;99557.03;4265051;28;20524;-72
2024/01/06 00:02:31;;;;;;;15.13;5.10;;;;;;;-2.90;99.04;99570.69;4257426;28;20245;-72
2024/01/06 00:04:58;;;;;;;15.37;5.80;;;;;;;-2.87;98.94;99565.25;4253858;28;20237;-71
2024/01/06 00:07:24;;;;;;;18.80;7.00;;;;;;;-2.90;99.31;99566.25;4261390;28;20229;-70
2024/01/06 00:09:51;;;;;;;20.43;6.73;;;;;;;-2.81;99.10;99569.34;4256534;28;21637;-70
2024/01/06 00:12:18;;;;;;;22.50;7.53;;;;;;;-2.86;98.78;99561.63;4259231;28;20232;-72
2024/01/06 00:14:45;;;;;;;21.53;7.90;;;;;;;-2.96;99.86;99563.09;4257772;28;20241;-72
2024/01/06 00:17:11;;;;;;;26.73;8.13;;;;;;;-3.01;100.00;99566.00;4253709;28;20237;-71
2024/01/06 00:19:38;;;;;;;20.40;7.43;;;;;;;-2.95;100.00;99573.59;4237877;28;20226;-71
2024/01/06 00:22:05;;;;;;;20.07;8.10;;;;;;;-2.78;99.27;99567.38;4250517;28;22493;-72
2024/01/06 00:24:31;;;;;;;21.57;8.80;;;;;;;-2.96;99.27;99576.34;4254844;28;20226;-72
2024/01/06 00:26:58;;;;;;;21.07;8.90;;;;;;;-2.87;99.78;99584.63;4258587;28;20283;-72
2024/01/06 00:29:24;;;;;;;22.83;8.67;;;;;;;-2.91;99.23;99572.47;4257319;28;21504;-72
2024/01/06 00:31:51;;;;;;;26.13;8.93;;;;;;;-2.99;99.50;99571.19;4245199;28;21866;-73
2024/01/06 00:34:17;;;;;;;24.87;9.57;;;;;;;-2.97;100.00;99570.16;4258377;28;20237;-72
2024/01/06 00:36:44;;;;;;;23.60;8.50;;;;;;;-2.99;100.00;99572.06;4255676;28;21374;-72
2024/01/06 00:39:11;;;;;;;30.97;9.70;;;;;;;-3.00;100.00;99577.41;4253666;28;20233;-71
2024/01/06 00:41:38;;;;;;;19.73;8.47;;;;;;;-3.03;100.00;99574.03;4250093;28;22203;-70
2024/01/06 00:44:04;;;;;;;28.33;8.67;;;;;;;-2.87;100.00;99578.50;4251133;28;20233;-75
2024/01/06 00:46:30;;;;;;;20.70;8.13;;;;;;;-2.89;99.65;99577.72;4251595;28;20286;-75
2024/01/06 00:48:57;;;;;;;26.27;9.77;;;;;;;-3.05;100.00;99556.47;4248338;28;20850;-71
2024/01/06 00:51:23;;;;;;;19.40;8.33;;;;;;;-2.93;100.00;99563.78;4267253;28;20815;-70
2024/01/06 00:53:50;;;;;;;25.23;8.47;;;;;;;-2.99;99.91;99552.66;4253745;28;24230;-71
2024/01/06 00:56:17;;;;;;;22.63;9.07;;;;;;;-3.00;100.00;99556.25;4254938;28;20601;-72
2024/01/06 00:58:43;;;;;;;18.23;7.87;;;;;;;-3.06;100.00;99547.69;4260421;28;20390;-72
2024/01/06 01:01:10;;;;;;;21.37;8.20;;;;;;;-3.17;100.00;99554.50;4256792;28;20243;-72
2024/01/06 01:03:36;;;;;;;23.73;8.87;;;;;;;-3.22;100.00;99539.75;4253751;28;27370;-70
2024/01/06 01:06:03;;;;;;;3.83;1.80;;;;;;;-3.19;100.00;99539.56;4258728;28;20387;-71
2024/01/06 01:08:30;;;;;;;2.90;1.40;;;;;;;-3.24;100.00;99528.38;4256376;28;26006;-73
2024/01/06 01:10:57;;;;;;;12.10;4.90;;;;;;;-3.28;100.00;99525.97;4250417;28;20238;-73
2024/01/06 01:13:23;;;;;;;16.67;7.33;;;;;;;-3.21;100.00;99519.41;4258629;28;20237;-72
2024/01/06 01:15:50;;;;;;;24.17;8.10;;;;;;;-3.28;100.00;99526.81;4260593;28;20283;-72
2024/01/06 01:18:16;;;;;;;21.00;7.93;;;;;;;-3.30;100.00;99539.28;4251281;28;20274;-72
2024/01/06 01:20:43;;;;;;;19.47;7.47;;;;;;;-3.14;100.00;99549.91;4251376;28;22477;-72
2024/01/06 01:23:10;;;;;;;20.73;7.63;;;;;;;-3.23;100.00;99551.25;4255929;28;20239;-73
2024/01/06 01:25:36;;;;;;;17.77;7.13;;;;;;;-3.21;100.00;99538.78;4257917;28;20237;-73
2024/01/06 01:28:03;;;;;;;22.37;8.57;;;;;;;-3.15;100.00;99555.28;4250085;28;20869;-71
2024/01/06 01:30:30;;;;;;;23.83;8.30;;;;;;;-3.20;100.00;99553.72;4260506;28;20236;-70
2024/01/06 01:32:56;;;;;;;19.33;8.43;;;;;;;-3.27;100.00;99554.16;4240240;28;22986;-72
2024/01/06 01:35:23;;;;;;;20.20;7.50;;;;;;;-3.16;100.00;99546.47;4247858;28;20304;-70
2024/01/06 01:37:50;;;;;;;18.23;6.93;;;;;;;-3.28;100.00;99544.50;4253187;28;20349;-72
2024/01/06 01:40:16;;;;;;;20.17;7.70;;;;;;;-3.26;100.00;99545.28;4267674;28;20224;-70
2024/01/06 01:42:43;;;;;;;18.67;6.57;;;;;;;-3.25;100.00;99544.34;4251248;28;20315;-69
2024/01/06 01:45:10;;;;;;;18.73;7.30;;;;;;;-3.23;99.85;99545.97;4276381;28;20244;-71
2024/01/06 01:47:39;;;;;;;20.10;7.40;;;;;;;-3.32;99.96;99540.31;4253706;28;20272;-74
2024/01/06 01:50:07;;;;;;;22.67;6.97;;;;;;;-3.26;99.64;99547.91;4255783;28;20644;-73
2024/01/06 01:52:36;;;;;;;22.37;8.23;;;;;;;-3.31;100.00;99548.16;4255754;28;20394;-71
2024/01/06 01:55:03;;;;;;;21.40;7.40;;;;;;;-3.33;100.00;99547.38;4261205;28;20249;-72
2024/01/06 01:57:30;;;;;;;18.03;6.83;;;;;;;-3.26;100.00;99542.63;4253008;28;20292;-72
2024/01/06 01:59:57;;;;;;;17.73;6.77;;;;;;;-3.35;100.00;99547.47;4250522;28;21444;-75
2024/01/06 02:02:23;;;;;;;17.27;6.90;;;;;;;-3.33;100.00;99552.66;4262793;28;20233;-71
2024/01/06 02:04:50;;;;;;;19.37;7.23;;;;;;;-3.30;100.00;99541.94;4266473;28;21223;-72
2024/01/06 02:07:17;;;;;;;20.47;7.07;;;;;;;-3.22;100.00;99541.50;4249486;28;20638;-72
2024/01/06 02:09:43;;;;;;;17.80;6.77;;;;;;;-3.20;99.97;99542.28;4258161;28;20749;-71
2024/01/06 02:12:10;;;;;;;17.47;7.10;;;;;;;-3.22;99.96;99545.03;4257432;28;20237;-71
2024/01/06 02:14:36;;;;;;;17.60;8.00;;;;;;;-3.25;99.71;99544.34;4241096;28;20714;-73
2024/01/06 02:17:03;;;;;;;20.87;7.80;;;;;;;-3.29;99.66;99534.84;4251323;28;20318;-74
2024/01/06 02:19:30;;;;;;;17.43;7.23;;;;;;;-3.21;99.40;99535.28;4257105;28;20298;-71
2024/01/06 02:21:56;;;;;;;13.87;6.70;;;;;;;-3.18;98.44;99540.44;4261550;28;20233;-71
2024/01/06 02:24:23;;;;;;;17.87;7.00;;;;;;;-3.25;98.78;99531.09;4257855;28;20229;-70
2024/01/06 02:26:50;;;;;;;17.17;7.17;;;;;;;-3.16;98.17;99520.00;4254423;28;20239;-71
2024/01/06 02:29:17;;;;;;;15.73;5.63;;;;;;;-3.19;97.90;99502.50;4262383;28;20248;-72
2024/01/06 02:31:43;;;;;;;15.27;6.57;;;;;;;-3.08;97.08;99515.16;4258655;28;20242;-70
2024/01/06 02:34:10;;;;;;;16.07;6.67;;;;;;;-3.19;97.25;99510.44;4250789;28;20910;-71
2024/01/06 02:36:37;;;;;;;17.33;6.80;;;;;;;-3.17;97.45;99514.78;4255115;28;20230;-74
2024/01/06 02:39:03;;;;;;;12.33;5.80;;;;;;;-3.10;97.37;99518.81;4256511;28;20233;-72
2024/01/06 02:41:30;;;;;;;15.67;6.53;;;;;;;-3.07;96.07;99519.50;4260811;28;20239;-70
2024/01/06 02:43:57;;;;;;;16.13;6.40;;;;;;;-3.09;96.22;99521.38;4262947;28;20377;-71
2024/01/06 02:46:23;;;;;;;17.33;6.57;;;;;;;-3.11;96.18;99512.69;4259961;28;23013;-72
2024/01/06 02:48:50;;;;;;;14.17;5.83;;;;;;;-3.13;96.04;99516.31;4259991;28;20237;-70
2024/01/06 02:51:17;;;;;;;16.23;5.63;;;;;;;-3.11;95.88;99517.09;4260827;28;22322;-71
2024/01/06 02:53:43;;;;;;;15.00;6.47;;;;;;;-3.19;96.21;99509.59;4257808;28;20280;-69
2024/01/06 02:56:11;;;;;;;15.43;5.77;;;;;;;-3.15;96.28;99510.28;4270937;28;21600;-70
2024/01/06 02:58:38;;;;;;;17.40;6.20;;;;;;;-3.11;96.15;99507.38;4259738;28;20234;-70
2024/01/06 03:01:05;;;;;;;13.13;5.77;;;;;;;-3.04;96.34;99514.06;4261124;28;20234;-71
2024/01/06 03:03:32;;;;;;;17.50;6.07;;;;;;;-3.16;96.38;99508.56;4259659;28;20503;-70
2024/01/06 03:05:58;;;;;;;16.10;5.80;;;;;;;-3.05;96.47;99516.78;4256174;28;20237;-70
2024/01/06 03:08:25;;;;;;;15.87;6.83;;;;;;;-3.11;96.26;99511.81;4259187;28;21257;-70
2024/01/06 03:10:51;;;;;;;13.87;6.00;;;;;;;-3.08;96.76;99517.78;4258967;28;20295;-71
2024/01/06 03:13:18;;;;;;;14.37;5.97;;;;;;;-3.08;97.00;99522.25;4255815;28;20247;-71
2024/01/06 03:15:45;;;;;;;19.33;7.20;;;;;;;-3.11;96.97;99519.75;4259637;28;22754;-71
2024/01/06 03:18:12;;;;;;;14.53;6.67;;;;;;;-2.96;97.00;99503.03;4257977;28;21322;-70
2024/01/06 03:20:39;;;;;;;19.03;7.67;;;;;;;-3.01;97.00;99486.56;4265558;28;20237;-70
2024/01/06 03:23:05;;;;;;;18.00;7.37;;;;;;;-3.07;97.55;99506.28;4262541;28;20406;-71
2024/01/06 03:25:32;;;;;;;20.20;7.97;;;;;;;-3.04;97.39;99494.66;4256660;28;20832;-69
2024/01/06 03:27:58;;;;;;;18.90;7.63;;;;;;;-3.08;97.88;99498.41;4258463;28;23083;-68
2024/01/06 03:30:24;;;;;;;17.37;7.77;;;;;;;-3.06;97.55;99493.91;4261404;28;20680;-71
2024/01/06 03:32:52;;;;;;;19.50;7.67;;;;;;;-3.02;98.63;99498.09;4258393;28;21121;-72
2024/01/06 03:35:18;;;;;;;18.77;8.17;;;;;;;-3.02;98.02;99504.22;4254328;28;20302;-70
2024/01/06 03:37:45;;;;;;;20.13;8.20;;;;;;;-3.08;98.32;99503.72;4261166;28;21680;-71
2024/01/06 03:40:12;;;;;;;19.30;8.03;;;;;;;-2.97;98.29;99497.84;4262209;28;21144;-71
2024/01/06 03:42:38;;;;;;;21.50;8.43;;;;;;;-2.94;98.32;99505.59;4258807;28;22121;-68
2024/01/06 03:45:05;;;;;;;20.37;8.30;;;;;;;-2.97;98.25;99489.88;4219749;28;20295;-71
2024/01/06 03:47:32;;;;;;;19.97;8.17;;;;;;;-3.16;98.78;99498.81;4260820;28;20303;-70
2024/01/06 03:49:58;;;;;;;22.80;8.77;;;;;;;-3.12;99.91;99516.28;4259027;28;20225;-71
2024/01/06 03:52:25;;;;;;;19.20;9.03;;;;;;;-3.05;99.40;99515.00;4240727;28;20252;-70
2024/01/06 03:54:51;;;;;;;21.27;8.57;;;;;;;-3.08;99.31;99516.94;4271629;28;20538;-71
2024/01/06 03:57:17;;;;;;;20.43;8.57;;;;;;;-3.00;98.90;99522.69;4260680;28;20343;-70
2024/01/06 03:59:44;;;;;;;22.23;8.93;;;;;;;-3.07;99.46;99519.50;4245073;28;22801;-70
2024/01/06 04:02:11;;;;;;;18.70;7.83;;;;;;;-2.98;99.56;99519.94;4264033;28;20222;-71
2024/01/06 04:04:37;;;;;;;20.73;9.17;;;;;;;-3.02;99.47;99520.09;4264371;28;20225;-72
2024/01/06 04:07:04;;;;;;;22.20;8.73;;;;;;;-2.81;98.66;99519.88;4260584;28;20279;-70
2024/01/06 04:09:31;;;;;;;20.90;8.50;;;;;;;-2.83;98.51;99532.34;4258196;28;21040;-69
2024/01/06 04:11:58;;;;;;;21.67;8.80;;;;;;;-2.91;98.78;99522.16;4255128;28;20242;-69
2024/01/06 04:14:24;;;;;;;22.50;8.17;;;;;;;-2.92;99.94;99524.91;4257934;28;20402;-70
2024/01/06 04:16:52;;;;;;;24.60;9.50;;;;;;;-2.99;99.96;99528.81;4264252;28;20231;-70
2024/01/06 04:19:20;;;;;;;22.43;9.33;;;;;;;-2.91;99.88;99524.81;4251677;28;20336;-70
2024/01/06 04:21:48;;;;;;;21.77;9.30;;;;;;;-2.96;100.00;99531.31;4262431;28;20318;-70
2024/01/06 04:24:14;;;;;;;20.53;8.77;;;;;;;-2.93;100.00;99521.41;4253000;28;21325;-71
2024/01/06 04:26:44;;;;;;;21.00;9.27;;;;;;;-2.91;100.00;99521.31;4266075;28;20256;-72
2024/01/06 04:29:11;;;;;;;22.50;8.90;;;;;;;-2.81;100.00;99514.59;4259214;28;20285;-71
2024/01/06 04:31:38;;;;;;;21.70;8.93;;;;;;;-2.73;99.65;99519.44;4254306;28;20401;-70
2024/01/06 04:34:05;;;;;;;20.03;9.23;;;;;;;-2.81;100.00;99519.00;4275614;28;21066;-69
2024/01/06 04:36:31;;;;;;;23.80;8.60;;;;;;;-2.81;100.00;99530.47;4257332;28;20234;-69
2024/01/06 04:38:58;;;;;;;25.97;9.57;;;;;;;-2.86;100.00;99532.50;4251857;28;20229;-70
2024/01/06 04:41:25;;;;;;;24.10;9.67;;;;;;;-3.06;100.00;99526.53;4253202;28;20317;-69
2024/01/06 04:43:51;;;;;;;24.43;9.00;;;;;;;-3.04;100.00;99518.47;4260490;28;21249;-70
2024/01/06 04:46:17;;;;;;;27.23;10.57;;;;;;;-3.09;100.00;99529.31;4274535;28;20243;-71
2024/01/06 04:48:44;;;;;;;25.63;9.60;;;;;;;-3.05;100.00;99530.00;4248576;28;21579;-70
2024/01/06 04:51:11;;;;;;;29.43;10.60;;;;;;;-3.00;100.00;99535.06;4254638;28;20222;-71
2024/01/06 04:53:38;;;;;;;22.77;9.57;;;;;;;-2.98;100.00;99536.69;4273768;28;20645;-71
2024/01/06 04:56:04;;;;;;;21.73;9.57;;;;;;;-3.08;100.00;99538.13;4255460;28;20225;-69
2024/01/06 04:58:31;;;;;;;28.17;10.17;;;;;;;-3.02;100.00;99532.50;4261097;28;20229;-70
2024/01/06 05:00:57;;;;;;;23.90;9.77;;;;;;;-3.00;100.00;99532.41;4272237;28;20302;-70
2024/01/06 05:03:24;;;;;;;23.23;10.20;;;;;;;-2.95;100.00;99525.09;4257392;28;21771;-71
2024/01/06 05:05:50;;;;;;;29.53;10.57;;;;;;;-3.06;100.00;99528.31;4270290;28;20292;-69
2024/01/06 05:08:18;;;;;;;21.60;9.43;;;;;;;-3.11;100.00;99527.69;4235951;28;20225;-71
2024/01/06 05:10:46;;;;;;;25.20;9.73;;;;;;;-3.16;100.00;99521.81;4255003;28;20302;-70
2024/01/06 05:13:16;;;;;;;22.07;9.57;;;;;;;-3.12;100.00;99523.34;4250217;28;20248;-70
2024/01/06 05:15:42;;;;;;;23.50;9.50;;;;;;;-3.13;100.00;99530.44;4259674;28;20233;-70
2024/01/06 05:18:09;;;;;;;20.77;9.00;;;;;;;-3.11;100.00;99525.06;4256787;28;20298;-70
2024/01/06 05:20:35;;;;;;;23.87;9.53;;;;;;;-3.21;100.00;99538.78;4256139;28;20240;-69
2024/01/06 05:23:02;;;;;;;23.57;9.00;;;;;;;-3.19;100.00;99538.72;4265407;28;21129;-69
2024/01/06 05:25:29;;;;;;;19.83;9.30;;;;;;;-3.24;100.00;99533.66;4247795;28;21755;-69
2024/01/06 05:27:55;;;;;;;19.87;8.33;;;;;;;-3.25;100.00;99533.75;4251206;28;20333;-71
2024/01/06 05:30:21;;;;;;;22.30;9.27;;;;;;;-3.31;100.00;99528.75;4256148;28;20679;-71
2024/01/06 05:32:48;;;;;;;19.17;7.83;;;;;;;-3.27;100.00;99531.16;4260372;28;20241;-69
2024/01/06 05:35:17;;;;;;;22.67;9.53;;;;;;;-3.29;100.00;99541.00;4261325;28;20634;-71
2024/01/06 05:37:44;;;;;;;22.07;9.53;;;;;;;-3.31;100.00;99537.56;4257503;28;20241;-71
2024/01/06 05:40:11;;;;;;;21.50;8.73;;;;;;;-3.18;100.00;99543.06;4258727;28;20314;-70
2024/01/06 05:42:38;;;;;;;22.37;9.20;;;;;;;-3.29;100.00;99543.66;4261642;28;24909;-71
2024/01/06 05:45:05;;;;;;;25.87;10.03;;;;;;;-3.36;100.00;99547.56;4255786;28;20336;-72
2024/01/06 05:47:32;;;;;;;21.17;9.20;;;;;;;-3.25;100.00;99553.13;4253486;28;20604;-70
2024/01/06 05:49:59;;;;;;;22.80;9.40;;;;;;;-3.30;100.00;99549.88;4261379;28;20234;-70
2024/01/06 05:52:25;;;;;;;25.03;10.17;;;;;;;-3.21;100.00;99552.00;4257903;28;22954;-72
2024/01/06 05:54:52;;;;;;;22.43;9.50;;;;;;;-3.12;100.00;99560.41;4257333;28;20233;-71
2024/01/06 05:57:19;;;;;;;26.97;10.30;;;;;;;-3.28;100.00;99553.28;4252324;28;20367;-71
2024/01/06 05:59:45;;;;;;;29.03;10.73;;;;;;;-3.32;100.00;99558.84;4259708;28;22662;-71
2024/01/06 06:02:12;;;;;;;24.87;10.83;;;;;;;-3.31;100.00;99549.94;4254450;28;20299;-71
2024/01/06 06:04:38;;;;;;;30.93;12.20;;;;;;;-3.27;100.00;99555.00;4256224;28;20348;-70
2024/01/06 06:07:05;;;;;;;22.67;10.17;;;;;;;-3.20;100.00;99555.53;4255948;28;20292;-70
2024/01/06 06:09:34;;;;;;;25.07;10.80;;;;;;;-3.21;100.00;99569.69;4257925;28;20238;-70
2024/01/06 06:12:01;;;;;;;26.13;11.00;;;;;;;-3.20;100.00;99574.06;4254651;28;22372;-70
2024/01/06 06:14:28;;;;;;;23.83;10.73;;;;;;;-3.23;100.00;99574.22;4258988;28;20661;-72
2024/01/06 06:16:56;;;;;;;30.17;12.07;;;;;;;-3.30;100.00;99575.47;4251855;28;23047;-70
2024/01/06 06:19:23;;;;;;;27.00;12.30;;;;;;;-3.30;100.00;99589.56;4261103;28;20225;-71
2024/01/06 06:21:49;;;;;;;30.03;11.80;;;;;;;-3.13;100.00;99593.09;4254966;28;21786;-70
2024/01/06 06:24:16;;;;;;;30.97;12.20;;;;;;;-3.23;100.00;99587.44;4240732;28;20304;-72
2024/01/06 06:26:43;;;;;;;30.83;12.43;;;;;;;-3.19;100.00;99592.50;4255844;28;20237;-70
2024/01/06 06:29:09;;;;;;;28.60;11.33;;;;;;;-3.20;100.00;99584.66;4259075;28;20237;-72
2024/01/06 06:31:36;;;;;;;31.37;11.93;;;;;;;-3.18;100.00;99593.38;4262813;28;20222;-70
2024/01/06 06:34:02;;;;;;;32.97;11.83;;;;;;;-3.21;100.00;99589.06;4257249;28;20245;-72
2024/01/06 06:36:34;;;;;;;29.47;12.37;;;;;;;-3.31;100.00;99590.50;4256800;28;25765;-71
2024/01/06 06:39:01;;;;;;;30.80;12.83;;;;;;;-3.33;100.00;99600.31;4261990;28;20671;-69
2024/01/06 06:41:28;;;;;;;28.90;12.53;;;;;;;-3.22;100.00;99608.56;4259968;28;20237;-70
2024/01/06 06:43:55;;;;;;;28.37;11.87;;;;;;;-3.14;100.00;99615.25;4253943;28;20319;-69
2024/01/06 06:46:21;;;;;;;32.70;12.40;;;;;;;-3.16;100.00;99620.59;4258906;28;20225;-69
2024/01/06 06:48:47;;;;;;;28.00;11.90;;;;;;;-3.18;100.00;99635.72;4251048;28;22988;-70
2024/01/06 06:51:14;;;;;;;27.57;11.73;;;;;;;-3.23;100.00;99632.44;4266665;28;20683;-68
2024/01/06 06:53:41;;;;;;;33.07;12.37;;;;;;;-3.24;100.00;99630.72;4261359;28;21571;-67
2024/01/06 06:56:07;;;;;;;29.27;12.47;;;;;;;-3.30;100.00;99631.03;4229811;28;22867;-69
2024/01/06 06:58:34;;;;;;;28.97;12.07;;;;;;;-3.15;100.00;99624.13;4261731;28;20233;-71
2024/01/06 07:01:00;;;;;;;29.73;11.50;;;;;;;-3.22;100.00;99627.09;4264547;28;20406;-69
2024/01/06 07:03:27;;;;;;;26.83;11.00;;;;;;;-3.19;100.00;99632.19;4265279;28;23008;-68
2024/01/06 07:05:55;;;;;;;31.50;11.63;;;;;;;-3.08;100.00;99628.16;4245281;28;25777;-71
2024/01/06 07:08:22;;;;;;;31.83;11.37;;;;;;;-3.12;100.00;99631.88;4275388;28;20346;-71
2024/01/06 07:10:48;;;;;;;29.87;10.57;;;;;;;-3.15;100.00;99629.41;4269661;28;20226;-71
2024/01/06 07:13:15;;;;;;;30.17;12.10;;;;;;;-3.28;100.00;99622.09;4258057;28;20451;-71
2024/01/06 07:15:41;;;;;;;30.07;11.87;;;;;;;-3.28;100.00;99602.72;4255993;28;20278;-69
2024/01/06 07:18:08;;;;;;;25.37;10.60;;;;;;;-3.21;100.00;99612.88;4268312;28;20721;-71
2024/01/06 07:20:35;;;;;;;27.03;11.03;;;;;;;-3.21;100.00;99604.09;4256714;28;20375;-69
2024/01/06 07:23:03;;;;;;;28.77;12.63;;;;;;;-3.35;100.00;99610.97;4258392;28;20324;-69
2024/01/06 07:25:30;;;;;;;35.37;11.40;;;;;;;-3.33;100.00;99610.91;4265791;28;20235;-73
2024/01/06 07:27:57;;;;;;;32.80;11.33;;;;;;;-3.22;100.00;99612.97;4255023;28;20248;-73
2024/01/06 07:30:24;;;;;;;27.07;11.27;;;;;;;-3.31;100.00;99619.63;4258300;28;20274;-72
2024/01/06 07:32:51;;;;;;;27.60;11.57;;;;;;;-3.19;100.00;99631.38;4265659;28;20308;-69
2024/01/06 07:35:19;;;;;;;26.83;10.83;;;;;;;-3.28;100.00;99637.13;4270667;28;20299;-70
2024/01/06 07:37:45;;;;;;;28.53;11.47;;;;;;;-3.32;100.00;99639.06;4272915;28;20246;-71
2024/01/06 07:40:16;;;;;;;25.40;11.17;;;;;;;-3.25;100.00;99645.75;4261724;28;20395;-72
2024/01/06 07:42:43;;;;;;;24.93;10.73;;;;;;;-3.34;100.00;99656.81;4263456;28;20237;-73
2024/01/06 07:45:10;;;;;;;28.10;10.83;;;;;;;-3.23;100.00;99667.72;4269524;28;23420;-71
2024/01/06 07:47:38;;;;;;;25.63;11.40;;;;;;;-3.27;100.00;99666.16;4279636;28;20240;-70
2024/01/06 07:50:06;;;;;;;27.57;11.30;;;;;;;-3.25;100.00;99674.88;4260924;28;21385;-70
2024/01/06 07:52:32;;;;;;;30.27;12.70;;;;;;;-3.15;100.00;99656.72;4258491;28;20329;-73
2024/01/06 07:54:59;;;;;;;29.50;12.63;;;;;;;-2.98;100.00;99668.25;4249303;28;20990;-70
2024/01/06 07:57:26;;;;;;;26.50;11.57;;;;;;;-3.08;100.00;99667.88;4257624;28;21055;-69
2024/01/06 07:59:52;;;;;;;28.40;11.50;;;;;;;-3.04;100.00;99672.06;4263197;28;20403;-72
2024/01/06 08:02:19;;;;;;;29.97;11.83;;;;;;;-2.99;100.00;99666.53;4250500;28;20233;-74
2024/01/06 08:04:46;;;;;;;30.13;12.73;;;;;;;-3.03;100.00;99673.78;4270566;28;22088;-70
2024/01/06 08:07:13;;;;;;;31.67;12.97;;;;;;;-3.04;100.00;99669.41;4260993;28;21675;-71
2024/01/06 08:09:40;;;;;;;27.87;12.23;;;;;;;-3.11;99.83;99668.00;4254835;28;20242;-73
2024/01/06 08:12:07;;;;;;;31.30;12.43;;;;;;;-3.10;100.00;99667.09;4261036;28;21342;-70
2024/01/06 08:14:34;;;;;;;27.43;11.97;;;;;;;-3.06;100.00;99668.66;4264278;28;21176;-69
2024/01/06 08:17:01;;;;;;;33.60;12.80;;;;;;;-3.09;100.00;99668.81;4264681;28;20236;-71
2024/01/06 08:19:30;;;;;;;35.13;12.20;;;;;;;-3.06;99.93;99672.13;4257878;28;20569;-74
2024/01/06 08:21:57;;;;;;;28.90;12.40;;;;;;;-3.06;100.00;99668.66;4275445;28;21172;-70
2024/01/06 08:24:24;;;;;;;28.03;12.37;;;;;;;-3.07;100.00;99673.06;4265865;28;20233;-74
2024/01/06 08:26:51;;;;;;;27.97;11.63;;;;;;;-3.05;100.00;99675.63;4259852;28;20326;-71
2024/01/06 08:29:19;;;;;;;26.70;10.77;;;;;;;-2.98;99.71;99673.53;4259428;28;20324;-74
2024/01/06 08:31:46;;;;;;;25.93;12.00;;;;;;;-3.00;99.55;99683.34;4257235;28;20451;-73
2024/01/06 08:34:12;;;;;;;29.40;11.67;;;;;;;-3.04;99.70;99680.88;4255774;28;20248;-73
2024/01/06 08:36:41;;;;;;;25.73;11.07;;;;;;;-2.87;99.14;99690.56;4258561;28;20242;-71
2024/01/06 08:39:08;;;;;;;23.93;9.97;;;;;;;-2.80;98.86;99701.72;4261836;28;20229;-73
2024/01/06 08:41:34;;;;;;;26.53;10.33;;;;;;;-2.81;98.63;99707.94;4263641;28;20352;-71
2024/01/06 08:44:01;;;;;;;26.07;10.23;;;;;;;-2.80;98.04;99701.72;4269151;28;20507;-70
2024/01/06 08:46:27;;;;;;;27.40;10.93;;;;;;;-2.85;97.95;99702.88;4263502;28;20370;-74
2024/01/06 08:48:55;;;;;;;26.97;11.03;;;;;;;-2.92;97.95;99707.63;4275207;28;20244;-72
2024/01/06 08:51:21;;;;;;;25.97;10.13;;;;;;;-2.99;98.44;99712.41;4252760;28;20241;-69
2024/01/06 08:53:48;;;;;;;24.43;10.73;;;;;;;-3.03;99.10;99710.84;4254778;28;20656;-69
2024/01/06 08:56:16;;;;;;;25.00;10.57;;;;;;;-3.01;98.92;99708.97;4266777;28;20743;-74
2024/01/06 08:58:42;;;;;;;30.60;10.83;;;;;;;-2.92;99.22;99710.28;4246694;28;21280;-71
2024/01/06 09:01:09;;;;;;;25.63;10.53;;;;;;;-3.00;98.80;99717.75;4257256;28;23284;-69
2024/01/06 09:03:36;;;;;;;27.53;11.83;;;;;;;-3.01;99.14;99722.22;4266111;28;20233;-72
2024/01/06 09:06:04;;;;;;;22.87;9.77;;;;;;;-3.10;98.69;99727.97;4259003;28;20266;-72
2024/01/06 09:08:30;;;;;;;24.90;9.67;;;;;;;-2.98;99.33;99723.84;4251741;28;20247;-70
2024/01/06 09:10:58;;;;;;;24.93;10.40;;;;;;;-2.99;98.96;99724.78;4269445;28;20237;-72
2024/01/06 09:13:25;;;;;;;23.77;10.30;;;;;;;-3.03;98.56;99716.13;4252079;28;21224;-71
2024/01/06 09:15:52;;;;;;;23.73;9.37;;;;;;;-2.97;97.86;99720.28;4253819;28;20225;-70
2024/01/06 09:18:18;;;;;;;23.13;10.37;;;;;;;-3.07;98.83;99717.25;4254848;28;20731;-72
2024/01/06 09:20:47;;;;;;;23.87;10.17;;;;;;;-3.09;99.40;99716.47;4262734;28;20222;-73
2024/01/06 09:23:16;;;;;;;21.97;10.10;;;;;;;-2.99;98.93;99725.66;4255146;28;20480;-73
2024/01/06 09:25:42;;;;;;;23.07;10.13;;;;;;;-3.02;99.01;99721.34;4250807;28;21331;-71
2024/01/06 09:28:10;;;;;;;24.80;10.33;;;;;;;-2.96;98.44;99725.47;4256597;28;20238;-68
2024/01/06 09:30:37;;;;;;;20.43;9.13;;;;;;;-3.08;98.45;99720.81;4253129;28;21276;-68
2024/01/06 09:33:04;;;;;;;21.67;9.93;;;;;;;-2.96;98.18;99717.53;4261511;28;20218;-70
2024/01/06 09:35:30;;;;;;;22.67;9.30;;;;;;;-3.06;98.76;99718.97;4256907;28;21288;-70
2024/01/06 09:37:57;;;;;;;24.53;9.43;;;;;;;-3.03;99.12;99724.06;4239014;28;20244;-69
2024/01/06 09:40:24;;;;;;;18.33;8.13;;;;;;;-3.14;99.92;99716.69;4259149;28;20522;-73
2024/01/06 09:42:51;;;;;;;23.50;9.03;;;;;;;-3.13;99.80;99725.47;4258908;28;20541;-73
2024/01/06 09:45:18;;;;;;;21.27;9.13;;;;;;;-3.10;100.00;99723.56;4252029;28;20233;-70
2024/01/06 09:47:50;;;;;;;18.67;9.10;;;;;;;-3.05;100.00;99726.81;4248027;28;20351;-70
2024/01/06 09:50:22;;;;;;;25.40;8.67;;;;;;;-3.09;100.00;99725.25;4271575;28;20236;-68
2024/01/06 09:52:53;;;;;;;19.83;8.90;;;;;;;-3.16;100.00;99730.94;4260842;28;23385;-73
2024/01/06 09:55:28;;;;;;;22.27;9.30;;;;;;;-3.11;100.00;99731.56;4262670;28;20230;-68
2024/01/06 09:57:55;;;;;;;23.83;9.90;;;;;;;-3.10;100.00;99715.63;4255883;28;20255;-70
2024/01/06 10:00:22;;;;;;;25.47;9.47;;;;;;;-3.03;100.00;99730.25;4266798;28;20250;-68
2024/01/06 10:02:50;;;;;;;21.70;8.50;;;;;;;-3.03;100.00;99729.38;4263111;28;20429;-67
2024/01/06 10:05:18;;;;;;;17.83;7.73;;;;;;;-3.11;100.00;99735.06;4265555;28;20229;-70
2024/01/06 10:07:45;;;;;;;22.50;8.57;;;;;;;-3.06;100.00;99735.69;4265210;28;20242;-70
2024/01/06 10:10:12;;;;;;;20.33;8.53;;;;;;;-3.04;99.88;99727.66;4258993;28;20237;-70
2024/01/06 10:12:40;;;;;;;19.63;8.37;;;;;;;-2.96;100.00;99730.78;4261507;28;20313;-70
2024/01/06 10:15:08;;;;;;;17.70;8.33;;;;;;;-2.94;100.00;99731.56;4265336;28;20229;-70
2024/01/06 10:17:41;;;;;;;20.00;8.47;;;;;;;-3.01;99.93;99746.06;4247174;28;20350;-67
2024/01/06 10:20:10;;;;;;;20.33;8.33;;;;;;;-2.99;100.00;99740.66;4260848;28;21819;-68
2024/01/06 10:22:38;;;;;;;17.87;8.30;;;;;;;-2.94;100.00;99742.16;4262748;28;22322;-68
2024/01/06 10:25:06;;;;;;;22.37;8.70;;;;;;;-2.89;100.00;99741.91;4258763;28;25370;-68
2024/01/06 10:27:37;;;;;;;18.13;7.73;;;;;;;-2.99;99.62;99745.97;4258166;28;20271;-69
2024/01/06 10:30:07;;;;;;;18.77;8.63;;;;;;;-3.13;100.00;99744.00;4266292;28;20291;-68
2024/01/06 10:32:36;;;;;;;19.07;8.80;;;;;;;-3.04;100.00;99748.84;4261628;28;20372;-71
2024/01/06 10:35:05;;;;;;;22.73;9.17;;;;;;;-3.08;100.00;99740.19;4251104;28;21161;-74
2024/01/06 10:37:32;;;;;;;19.50;8.63;;;;;;;-3.06;100.00;99740.13;4267159;28;21877;-68
2024/01/06 10:40:18;;;;;;;18.93;8.10;;;;;;;-3.06;100.00;99748.09;4261736;28;20230;-68
2024/01/06 10:42:45;;;;;;;22.83;8.60;;;;;;;-3.06;100.00;99748.09;4263467;28;25347;-69
2024/01/06 10:45:13;;;;;;;24.93;7.67;;;;;;;-3.02;100.00;99755.78;4261749;28;20306;-71
2024/01/06 10:47:42;;;;;;;18.50;8.20;;;;;;;-3.07;100.00;99755.16;4262272;28;20574;-70
2024/01/06 10:50:10;;;;;;;20.10;8.60;;;;;;;-3.01;100.00;99751.34;4258239;28;20288;-67
2024/01/06 10:52:38;;;;;;;22.53;7.90;;;;;;;-2.98;100.00;99752.97;4253957;28;23098;-71
2024/01/06 10:55:05;;;;;;;18.97;8.57;;;;;;;-2.98;100.00;99748.53;4271959;28;20522;-72
2024/01/06 10:57:33;;;;;;;25.47;9.73;;;;;;;-2.96;100.00;99743.16;4250140;28;20367;-70
2024/01/06 11:00:00;;;;;;;18.60;8.23;;;;;;;-2.96;100.00;99740.53;4261704;28;20408;-71
2024/01/06 11:02:28;;;;;;;22.13;9.57;;;;;;;-2.96;100.00;99736.06;4262067;28;22725;-73
2024/01/06 11:04:55;;;;;;;20.13;8.27;;;;;;;-2.85;100.00;99734.66;4274100;28;20275;-67
2024/01/06 11:07:24;;;;;;;20.67;8.10;;;;;;;-2.85;100.00;99729.38;4264331;28;20229;-71
2024/01/06 11:10:00;;;;;;;20.77;8.80;;;;;;;-2.89;100.00;99733.97;4262675;28;20234;-74
2024/01/06 11:12:26;;;;;;;28.67;10.40;;;;;;;-2.73;100.00;99728.72;4263029;28;20311;-73
2024/01/06 11:14:54;;;;;;;24.40;8.63;;;;;;;-2.75;100.00;99731.47;4253911;28;20230;-74